sensor_id;sensor_type;location;lat;lon;timestamp;P1;durP1;ratioP1;P2;durP2;ratioP2
15504;SDS011;7854;52.184;5.942;2023-04-01T00:03:39;3;;;2;;
15504;SDS011;7854;52.184;5.942;2023-04-01T00:07:09;4;;;4;;
15504;SDS011;7854;52.184;5.942;2023-04-01T00:09:23;4;;;4;;
15504;SDS011;7854;52.184;5.942;2023-04-01T00:11:38;3;;;3;;
15504;SDS011;7854;52.184;5.942;2023-04-01T00:13:53;3;;;3;;
15504;SDS011;7854;52.184;5.942;2023-04-01T00:16:07;7;;;3;;
15504;SDS011;7854;52.184;5.942;2023-04-01T00:18:22;3;;;3;;
15504;SDS011;7854;52.184;5.942;2023-04-01T00:20:35;2;;;2;;
15504;SDS011;7854;52.184;5.942;2023-04-01T00:22:50;4;;;4;;
15504;SDS011;7854;52.184;5.942;2023-04-01T00:25:05;3;;;3;;
15504;SDS011;7854;52.184;5.942;2023-04-01T00:27:19;3;;;3;;
15504;SDS011;7854;52.184;5.942;2023-04-01T00:29:33;4;;;4;;
15504;SDS011;7854;52.184;5.942;2023-04-01T00:31:48;5;;;5;;
15504;SDS011;7854;52.184;5.942;2023-04-01T00:34:02;5;;;4;;
15504;SDS011;7854;52.184;5.942;2023-04-01T00:36:18;6;;;5;;
15504;SDS011;7854;52.184;5.942;2023-04-01T00:38:31;5;;;5;;
15504;SDS011;7854;52.184;5.942;2023-04-01T00:40:46;5;;;5;;
15504;SDS011;7854;52.184;5.942;2023-04-01T00:43:00;7;;;6;;
15504;SDS011;7854;52.184;5.942;2023-04-01T00:45:23;7;;;6;;
15504;SDS011;7854;52.184;5.942;2023-04-01T00:47:29;8;;;7;;
15504;SDS011;7854;52.184;5.942;2023-04-01T00:49:45;7;;;7;;
15504;SDS011;7854;52.184;5.942;2023-04-01T00:51:58;8;;;7;;
15504;SDS011;7854;52.184;5.942;2023-04-01T00:54:12;6;;;6;;
15504;SDS011;7854;52.184;5.942;2023-04-01T00:56:27;8;;;7;;
15504;SDS011;7854;52.184;5.942;2023-04-01T00:58:43;7;;;7;;
15504;SDS011;7854;52.184;5.942;2023-04-01T01:00:56;8;;;7;;
15504;SDS011;7854;52.184;5.942;2023-04-01T01:03:10;8;;;7;;
15504;SDS011;7854;52.184;5.942;2023-04-01T01:05:28;9;;;8;;
15504;SDS011;7854;52.184;5.942;2023-04-01T01:07:40;12;;;9;;
15504;SDS011;7854;52.184;5.942;2023-04-01T01:09:55;10;;;9;;
15504;SDS011;7854;52.184;5.942;2023-04-01T01:12:10;10;;;10;;
15504;SDS011;7854;52.184;5.942;2023-04-01T01:14:25;12;;;11;;
15504;SDS011;7854;52.184;5.942;2023-04-01T01:16:38;17;;;14;;
15504;SDS011;7854;52.184;5.942;2023-04-01T01:18:52;15;;;12;;
15504;SDS011;7854;52.184;5.942;2023-04-01T01:21:17;11;;;10;;
15504;SDS011;7854;52.184;5.942;2023-04-01T01:25:38;13;;;11;;
15504;SDS011;7854;52.184;5.942;2023-04-01T01:27:52;12;;;10;;
15504;SDS011;7854;52.184;5.942;2023-04-01T01:30:10;9;;;8;;
15504;SDS011;7854;52.184;5.942;2023-04-01T01:32:21;9;;;9;;
15504;SDS011;7854;52.184;5.942;2023-04-01T01:34:33;16;;;8;;
15504;SDS011;7854;52.184;5.942;2023-04-01T01:36:48;9;;;9;;
15504;SDS011;7854;52.184;5.942;2023-04-01T01:39:02;11;;;10;;
15504;SDS011;7854;52.184;5.942;2023-04-01T01:41:16;8;;;7;;
15504;SDS011;7854;52.184;5.942;2023-04-01T01:43:31;11;;;10;;
15504;SDS011;7854;52.184;5.942;2023-04-01T01:45:46;10;;;9;;
15504;SDS011;7854;52.184;5.942;2023-04-01T01:47:59;12;;;11;;
15504;SDS011;7854;52.184;5.942;2023-04-01T01:50:13;11;;;10;;
15504;SDS011;7854;52.184;5.942;2023-04-01T01:52:27;13;;;12;;
15504;SDS011;7854;52.184;5.942;2023-04-01T01:54:46;11;;;10;;
15504;SDS011;7854;52.184;5.942;2023-04-01T01:56:58;13;;;12;;
15504;SDS011;7854;52.184;5.942;2023-04-01T01:59:10;18;;;15;;
15504;SDS011;7854;52.184;5.942;2023-04-01T02:01:25;25;;;19;;
15504;SDS011;7854;52.184;5.942;2023-04-01T02:03:39;22;;;13;;
15504;SDS011;7854;52.184;5.942;2023-04-01T02:05:54;14;;;13;;
15504;SDS011;7854;52.184;5.942;2023-04-01T02:08:09;20;;;17;;
15504;SDS011;7854;52.184;5.942;2023-04-01T02:10:24;15;;;13;;
15504;SDS011;7854;52.184;5.942;2023-04-01T02:12:37;15;;;14;;
15504;SDS011;7854;52.184;5.942;2023-04-01T02:14:52;26;;;19;;
15504;SDS011;7854;52.184;5.942;2023-04-01T02:17:07;28;;;18;;
15504;SDS011;7854;52.184;5.942;2023-04-01T02:19:20;16;;;15;;
15504;SDS011;7854;52.184;5.942;2023-04-01T02:21:35;16;;;14;;
15504;SDS011;7854;52.184;5.942;2023-04-01T02:23:50;22;;;15;;
15504;SDS011;7854;52.184;5.942;2023-04-01T02:26:04;20;;;16;;
15504;SDS011;7854;52.184;5.942;2023-04-01T02:28:18;16;;;14;;
15504;SDS011;7854;52.184;5.942;2023-04-01T02:30:33;22;;;14;;
15504;SDS011;7854;52.184;5.942;2023-04-01T02:32:47;18;;;13;;
15504;SDS011;7854;52.184;5.942;2023-04-01T02:35:03;15;;;13;;
15504;SDS011;7854;52.184;5.942;2023-04-01T02:37:16;11;;;10;;
15504;SDS011;7854;52.184;5.942;2023-04-01T02:39:30;11;;;10;;
15504;SDS011;7854;52.184;5.942;2023-04-01T02:41:45;11;;;10;;
15504;SDS011;7854;52.184;5.942;2023-04-01T02:43:59;18;;;13;;
15504;SDS011;7854;52.184;5.942;2023-04-01T02:46:13;17;;;14;;
15504;SDS011;7854;52.184;5.942;2023-04-01T02:48:28;14;;;12;;
15504;SDS011;7854;52.184;5.942;2023-04-01T02:50:43;16;;;12;;
15504;SDS011;7854;52.184;5.942;2023-04-01T02:52:57;19;;;12;;
15504;SDS011;7854;52.184;5.942;2023-04-01T02:55:11;13;;;12;;
15504;SDS011;7854;52.184;5.942;2023-04-01T02:57:26;16;;;12;;
15504;SDS011;7854;52.184;5.942;2023-04-01T02:59:40;13;;;12;;
15504;SDS011;7854;52.184;5.942;2023-04-01T03:01:55;11;;;10;;
15504;SDS011;7854;52.184;5.942;2023-04-01T03:04:09;30;;;12;;
15504;SDS011;7854;52.184;5.942;2023-04-01T03:06:24;10;;;9;;
15504;SDS011;7854;52.184;5.942;2023-04-01T03:08:38;12;;;11;;
15504;SDS011;7854;52.184;5.942;2023-04-01T03:10:53;15;;;11;;
15504;SDS011;7854;52.184;5.942;2023-04-01T03:13:07;14;;;10;;
15504;SDS011;7854;52.184;5.942;2023-04-01T03:15:21;11;;;10;;
15504;SDS011;7854;52.184;5.942;2023-04-01T03:17:36;19;;;7;;
15504;SDS011;7854;52.184;5.942;2023-04-01T03:19:50;10;;;9;;
15504;SDS011;7854;52.184;5.942;2023-04-01T03:22:05;11;;;10;;
15504;SDS011;7854;52.184;5.942;2023-04-01T03:24:19;9;;;8;;
15504;SDS011;7854;52.184;5.942;2023-04-01T03:26:34;12;;;8;;
15504;SDS011;7854;52.184;5.942;2023-04-01T03:28:48;14;;;10;;
15504;SDS011;7854;52.184;5.942;2023-04-01T03:31:03;11;;;10;;
15504;SDS011;7854;52.184;5.942;2023-04-01T03:33:17;10;;;9;;
15504;SDS011;7854;52.184;5.942;2023-04-01T03:35:31;10;;;10;;
15504;SDS011;7854;52.184;5.942;2023-04-01T03:37:46;10;;;9;;
15504;SDS011;7854;52.184;5.942;2023-04-01T03:40:00;10;;;9;;
15504;SDS011;7854;52.184;5.942;2023-04-01T03:44:30;13;;;11;;
15504;SDS011;7854;52.184;5.942;2023-04-01T03:46:44;12;;;9;;
15504;SDS011;7854;52.184;5.942;2023-04-01T03:48:58;11;;;8;;
15504;SDS011;7854;52.184;5.942;2023-04-01T03:51:13;8;;;7;;
15504;SDS011;7854;52.184;5.942;2023-04-01T03:53:27;21;;;8;;
15504;SDS011;7854;52.184;5.942;2023-04-01T03:55:42;8;;;7;;
15504;SDS011;7854;52.184;5.942;2023-04-01T03:57:56;7;;;7;;
15504;SDS011;7854;52.184;5.942;2023-04-01T04:00:11;14;;;7;;
15504;SDS011;7854;52.184;5.942;2023-04-01T04:02:25;10;;;9;;
15504;SDS011;7854;52.184;5.942;2023-04-01T04:04:39;9;;;8;;
15504;SDS011;7854;52.184;5.942;2023-04-01T04:06:54;11;;;10;;
15504;SDS011;7854;52.184;5.942;2023-04-01T04:09:08;10;;;9;;
15504;SDS011;7854;52.184;5.942;2023-04-01T04:11:22;10;;;9;;
15504;SDS011;7854;52.184;5.942;2023-04-01T04:13:36;7;;;7;;
15504;SDS011;7854;52.184;5.942;2023-04-01T04:15:50;10;;;10;;
15504;SDS011;7854;52.184;5.942;2023-04-01T04:18:05;9;;;7;;
15504;SDS011;7854;52.184;5.942;2023-04-01T04:20:19;12;;;11;;
15504;SDS011;7854;52.184;5.942;2023-04-01T04:22:34;11;;;10;;
15504;SDS011;7854;52.184;5.942;2023-04-01T04:24:48;8;;;7;;
15504;SDS011;7854;52.184;5.942;2023-04-01T04:27:03;10;;;9;;
15504;SDS011;7854;52.184;5.942;2023-04-01T04:29:17;8;;;7;;
15504;SDS011;7854;52.184;5.942;2023-04-01T04:31:31;8;;;8;;
15504;SDS011;7854;52.184;5.942;2023-04-01T04:33:46;7;;;6;;
15504;SDS011;7854;52.184;5.942;2023-04-01T04:36:00;7;;;7;;
15504;SDS011;7854;52.184;5.942;2023-04-01T04:38:15;8;;;7;;
15504;SDS011;7854;52.184;5.942;2023-04-01T04:40:29;8;;;7;;
15504;SDS011;7854;52.184;5.942;2023-04-01T04:42:44;9;;;8;;
15504;SDS011;7854;52.184;5.942;2023-04-01T04:44:58;7;;;7;;
15504;SDS011;7854;52.184;5.942;2023-04-01T04:47:12;10;;;10;;
15504;SDS011;7854;52.184;5.942;2023-04-01T04:49:27;11;;;10;;
15504;SDS011;7854;52.184;5.942;2023-04-01T04:51:41;7;;;6;;
15504;SDS011;7854;52.184;5.942;2023-04-01T04:53:56;9;;;8;;
15504;SDS011;7854;52.184;5.942;2023-04-01T04:56:11;10;;;9;;
15504;SDS011;7854;52.184;5.942;2023-04-01T04:58:25;10;;;9;;
15504;SDS011;7854;52.184;5.942;2023-04-01T05:00:40;12;;;11;;
15504;SDS011;7854;52.184;5.942;2023-04-01T05:02:53;10;;;9;;
15504;SDS011;7854;52.184;5.942;2023-04-01T05:05:08;11;;;10;;
15504;SDS011;7854;52.184;5.942;2023-04-01T05:07:23;10;;;10;;
15504;SDS011;7854;52.184;5.942;2023-04-01T05:09:37;12;;;11;;
15504;SDS011;7854;52.184;5.942;2023-04-01T05:11:51;17;;;11;;
15504;SDS011;7854;52.184;5.942;2023-04-01T05:14:06;11;;;10;;
15504;SDS011;7854;52.184;5.942;2023-04-01T05:16:20;15;;;13;;
15504;SDS011;7854;52.184;5.942;2023-04-01T05:18:35;16;;;13;;
15504;SDS011;7854;52.184;5.942;2023-04-01T05:20:50;16;;;15;;
15504;SDS011;7854;52.184;5.942;2023-04-01T05:23:03;25;;;15;;
15504;SDS011;7854;52.184;5.942;2023-04-01T05:25:18;14;;;12;;
15504;SDS011;7854;52.184;5.942;2023-04-01T05:27:33;13;;;12;;
15504;SDS011;7854;52.184;5.942;2023-04-01T05:29:47;11;;;10;;
15504;SDS011;7854;52.184;5.942;2023-04-01T05:32:02;14;;;13;;
15504;SDS011;7854;52.184;5.942;2023-04-01T05:34:16;13;;;12;;
15504;SDS011;7854;52.184;5.942;2023-04-01T05:36:30;14;;;12;;
15504;SDS011;7854;52.184;5.942;2023-04-01T05:38:45;13;;;12;;
15504;SDS011;7854;52.184;5.942;2023-04-01T05:40:59;13;;;12;;
15504;SDS011;7854;52.184;5.942;2023-04-01T05:43:13;20;;;16;;
15504;SDS011;7854;52.184;5.942;2023-04-01T05:45:28;22;;;17;;
15504;SDS011;7854;52.184;5.942;2023-04-01T05:47:43;15;;;14;;
15504;SDS011;7854;52.184;5.942;2023-04-01T05:49:57;17;;;15;;
15504;SDS011;7854;52.184;5.942;2023-04-01T05:54:26;16;;;14;;
15504;SDS011;7854;52.184;5.942;2023-04-01T05:56:40;39;;;19;;
15504;SDS011;7854;52.184;5.942;2023-04-01T05:58:55;29;;;18;;
15504;SDS011;7854;52.184;5.942;2023-04-01T06:01:10;23;;;16;;
15504;SDS011;7854;52.184;5.942;2023-04-01T06:03:24;16;;;14;;
15504;SDS011;7854;52.184;5.942;2023-04-01T06:05:39;39;;;18;;
15504;SDS011;7854;52.184;5.942;2023-04-01T06:07:54;18;;;15;;
15504;SDS011;7854;52.184;5.942;2023-04-01T06:10:10;16;;;13;;
15504;SDS011;7854;52.184;5.942;2023-04-01T06:12:26;22;;;14;;
15504;SDS011;7854;52.184;5.942;2023-04-01T06:14:37;22;;;13;;
15504;SDS011;7854;52.184;5.942;2023-04-01T06:16:55;16;;;14;;
15504;SDS011;7854;52.184;5.942;2023-04-01T06:19:07;32;;;14;;
15504;SDS011;7854;52.184;5.942;2023-04-01T06:21:24;41;;;18;;
15504;SDS011;7854;52.184;5.942;2023-04-01T06:23:37;27;;;15;;
15504;SDS011;7854;52.184;5.942;2023-04-01T06:25:50;26;;;16;;
15504;SDS011;7854;52.184;5.942;2023-04-01T06:28:13;25;;;16;;
15504;SDS011;7854;52.184;5.942;2023-04-01T06:30:24;40;;;19;;
15504;SDS011;7854;52.184;5.942;2023-04-01T06:32:37;16;;;14;;
15504;SDS011;7854;52.184;5.942;2023-04-01T06:34:49;31;;;15;;
15504;SDS011;7854;52.184;5.942;2023-04-01T06:37:03;27;;;15;;
15504;SDS011;7854;52.184;5.942;2023-04-01T06:39:19;16;;;14;;
15504;SDS011;7854;52.184;5.942;2023-04-01T06:41:39;18;;;14;;
15504;SDS011;7854;52.184;5.942;2023-04-01T06:43:45;15;;;12;;
15504;SDS011;7854;52.184;5.942;2023-04-01T06:45:58;14;;;13;;
15504;SDS011;7854;52.184;5.942;2023-04-01T06:48:16;28;;;15;;
15504;SDS011;7854;52.184;5.942;2023-04-01T06:50:28;20;;;13;;
15504;SDS011;7854;52.184;5.942;2023-04-01T06:52:43;21;;;13;;
15504;SDS011;7854;52.184;5.942;2023-04-01T06:54:55;25;;;14;;
15504;SDS011;7854;52.184;5.942;2023-04-01T06:57:12;40;;;16;;
15504;SDS011;7854;52.184;5.942;2023-04-01T06:59:25;35;;;13;;
15504;SDS011;7854;52.184;5.942;2023-04-01T07:01:38;28;;;13;;
15504;SDS011;7854;52.184;5.942;2023-04-01T07:03:53;28;;;15;;
15504;SDS011;7854;52.184;5.942;2023-04-01T07:06:08;28;;;14;;
15504;SDS011;7854;52.184;5.942;2023-04-01T07:08:22;16;;;12;;
15504;SDS011;7854;52.184;5.942;2023-04-01T07:10:36;33;;;14;;
15504;SDS011;7854;52.184;5.942;2023-04-01T07:12:51;28;;;15;;
15504;SDS011;7854;52.184;5.942;2023-04-01T07:15:06;12;;;11;;
15504;SDS011;7854;52.184;5.942;2023-04-01T07:17:19;24;;;13;;
15504;SDS011;7854;52.184;5.942;2023-04-01T07:19:34;27;;;14;;
15504;SDS011;7854;52.184;5.942;2023-04-01T07:21:47;33;;;12;;
15504;SDS011;7854;52.184;5.942;2023-04-01T07:24:04;12;;;10;;
15504;SDS011;7854;52.184;5.942;2023-04-01T07:26:17;25;;;12;;
15504;SDS011;7854;52.184;5.942;2023-04-01T07:28:30;35;;;14;;
15504;SDS011;7854;52.184;5.942;2023-04-01T07:30:47;24;;;12;;
15504;SDS011;7854;52.184;5.942;2023-04-01T07:32:59;17;;;10;;
15504;SDS011;7854;52.184;5.942;2023-04-01T07:35:16;21;;;12;;
15504;SDS011;7854;52.184;5.942;2023-04-01T07:37:28;13;;;10;;
15504;SDS011;7854;52.184;5.942;2023-04-01T07:39:44;11;;;9;;
15504;SDS011;7854;52.184;5.942;2023-04-01T07:41:58;11;;;10;;
15504;SDS011;7854;52.184;5.942;2023-04-01T07:44:12;11;;;9;;
15504;SDS011;7854;52.184;5.942;2023-04-01T07:46:29;14;;;11;;
15504;SDS011;7854;52.184;5.942;2023-04-01T07:48:42;12;;;10;;
15504;SDS011;7854;52.184;5.942;2023-04-01T07:50:55;20;;;10;;
15504;SDS011;7854;52.184;5.942;2023-04-01T07:53:11;15;;;11;;
15504;SDS011;7854;52.184;5.942;2023-04-01T07:55:24;18;;;9;;
15504;SDS011;7854;52.184;5.942;2023-04-01T07:57:38;11;;;8;;
15504;SDS011;7854;52.184;5.942;2023-04-01T07:59:54;17;;;10;;
15504;SDS011;7854;52.184;5.942;2023-04-01T08:02:06;13;;;9;;
15504;SDS011;7854;52.184;5.942;2023-04-01T08:04:25;10;;;9;;
15504;SDS011;7854;52.184;5.942;2023-04-01T08:06:35;21;;;11;;
15504;SDS011;7854;52.184;5.942;2023-04-01T08:08:52;15;;;9;;
15504;SDS011;7854;52.184;5.942;2023-04-01T08:11:05;20;;;9;;
15504;SDS011;7854;52.184;5.942;2023-04-01T08:13:20;6;;;6;;
15504;SDS011;7854;52.184;5.942;2023-04-01T08:15:33;9;;;8;;
15504;SDS011;7854;52.184;5.942;2023-04-01T08:17:49;21;;;9;;
15504;SDS011;7854;52.184;5.942;2023-04-01T08:20:07;8;;;7;;
15504;SDS011;7854;52.184;5.942;2023-04-01T08:22:16;9;;;7;;
15504;SDS011;7854;52.184;5.942;2023-04-01T08:24:33;7;;;6;;
15504;SDS011;7854;52.184;5.942;2023-04-01T08:26:45;16;;;7;;
15504;SDS011;7854;52.184;5.942;2023-04-01T08:28:59;7;;;6;;
15504;SDS011;7854;52.184;5.942;2023-04-01T08:31:14;7;;;6;;
15504;SDS011;7854;52.184;5.942;2023-04-01T08:33:28;7;;;6;;
15504;SDS011;7854;52.184;5.942;2023-04-01T08:35:44;6;;;5;;
15504;SDS011;7854;52.184;5.942;2023-04-01T08:37:58;6;;;6;;
15504;SDS011;7854;52.184;5.942;2023-04-01T08:40:17;6;;;5;;
15504;SDS011;7854;52.184;5.942;2023-04-01T08:42:45;5;;;5;;
15504;SDS011;7854;52.184;5.942;2023-04-01T08:44:59;5;;;5;;
15504;SDS011;7854;52.184;5.942;2023-04-01T08:47:01;5;;;5;;
15504;SDS011;7854;52.184;5.942;2023-04-01T08:49:11;4;;;3;;
15504;SDS011;7854;52.184;5.942;2023-04-01T08:51:30;6;;;5;;
15504;SDS011;7854;52.184;5.942;2023-04-01T08:53:43;5;;;4;;
15504;SDS011;7854;52.184;5.942;2023-04-01T08:55:56;6;;;5;;
15504;SDS011;7854;52.184;5.942;2023-04-01T08:58:12;5;;;5;;
15504;SDS011;7854;52.184;5.942;2023-04-01T09:00:22;5;;;4;;
15504;SDS011;7854;52.184;5.942;2023-04-01T09:02:48;4;;;4;;
15504;SDS011;7854;52.184;5.942;2023-04-01T09:04:55;5;;;5;;
15504;SDS011;7854;52.184;5.942;2023-04-01T09:07:06;4;;;3;;
15504;SDS011;7854;52.184;5.942;2023-04-01T09:09:21;4;;;4;;
15504;SDS011;7854;52.184;5.942;2023-04-01T09:11:34;4;;;4;;
15504;SDS011;7854;52.184;5.942;2023-04-01T09:13:51;3;;;3;;
15504;SDS011;7854;52.184;5.942;2023-04-01T09:16:20;4;;;3;;
15504;SDS011;7854;52.184;5.942;2023-04-01T09:18:21;6;;;3;;
15504;SDS011;7854;52.184;5.942;2023-04-01T09:20:37;3;;;2;;
15504;SDS011;7854;52.184;5.942;2023-04-01T09:22:49;3;;;3;;
15504;SDS011;7854;52.184;5.942;2023-04-01T09:25:19;3;;;3;;
15504;SDS011;7854;52.184;5.942;2023-04-01T09:27:15;3;;;3;;
15504;SDS011;7854;52.184;5.942;2023-04-01T09:29:31;4;;;2;;
15504;SDS011;7854;52.184;5.942;2023-04-01T09:32:01;1;;;1;;
15504;SDS011;7854;52.184;5.942;2023-04-01T09:36:12;0;;;0;;
15504;SDS011;7854;52.184;5.942;2023-04-01T09:38:28;0;;;0;;
15504;SDS011;7854;52.184;5.942;2023-04-01T09:40:42;1;;;0;;
15504;SDS011;7854;52.184;5.942;2023-04-01T09:43:00;0;;;0;;
15504;SDS011;7854;52.184;5.942;2023-04-01T09:45:09;0;;;0;;
15504;SDS011;7854;52.184;5.942;2023-04-01T09:47:27;0;;;0;;
15504;SDS011;7854;52.184;5.942;2023-04-01T09:49:40;0;;;0;;
15504;SDS011;7854;52.184;5.942;2023-04-01T09:51:54;1;;;0;;
15504;SDS011;7854;52.184;5.942;2023-04-01T09:54:10;0;;;0;;
15504;SDS011;7854;52.184;5.942;2023-04-01T09:56:27;3;;;2;;
15504;SDS011;7854;52.184;5.942;2023-04-01T09:58:41;1;;;1;;
15504;SDS011;7854;52.184;5.942;2023-04-01T10:00:53;0;;;0;;
15504;SDS011;7854;52.184;5.942;2023-04-01T10:03:12;0;;;0;;
15504;SDS011;7854;52.184;5.942;2023-04-01T10:05:24;0;;;0;;
15504;SDS011;7854;52.184;5.942;2023-04-01T10:07:41;1;;;0;;
15504;SDS011;7854;52.184;5.942;2023-04-01T10:12:07;0;;;0;;
15504;SDS011;7854;52.184;5.942;2023-04-01T10:14:22;1;;;1;;
15504;SDS011;7854;52.184;5.942;2023-04-01T10:16:37;0;;;0;;
15504;SDS011;7854;52.184;5.942;2023-04-01T10:18:52;0;;;0;;
15504;SDS011;7854;52.184;5.942;2023-04-01T10:21:03;0;;;0;;
15504;SDS011;7854;52.184;5.942;2023-04-01T10:23:22;1;;;0;;
15504;SDS011;7854;52.184;5.942;2023-04-01T10:25:30;0;;;0;;
15504;SDS011;7854;52.184;5.942;2023-04-01T10:27:56;0;;;0;;
15504;SDS011;7854;52.184;5.942;2023-04-01T10:30:55;0;;;0;;
15504;SDS011;7854;52.184;5.942;2023-04-01T10:32:22;0;;;0;;
15504;SDS011;7854;52.184;5.942;2023-04-01T10:34:29;0;;;0;;
15504;SDS011;7854;52.184;5.942;2023-04-01T10:36:43;0;;;0;;
15504;SDS011;7854;52.184;5.942;2023-04-01T10:39:01;0;;;0;;
15504;SDS011;7854;52.184;5.942;2023-04-01T10:41:14;0;;;0;;
15504;SDS011;7854;52.184;5.942;2023-04-01T10:43:33;0;;;0;;
15504;SDS011;7854;52.184;5.942;2023-04-01T10:47:59;0;;;0;;
15504;SDS011;7854;52.184;5.942;2023-04-01T10:50:13;0;;;0;;
15504;SDS011;7854;52.184;5.942;2023-04-01T10:52:25;1;;;1;;
15504;SDS011;7854;52.184;5.942;2023-04-01T10:54:40;0;;;0;;
15504;SDS011;7854;52.184;5.942;2023-04-01T10:56:51;4;;;1;;
15504;SDS011;7854;52.184;5.942;2023-04-01T11:01:22;1;;;1;;
15504;SDS011;7854;52.184;5.942;2023-04-01T11:03:40;1;;;1;;
15504;SDS011;7854;52.184;5.942;2023-04-01T11:05:53;2;;;2;;
15504;SDS011;7854;52.184;5.942;2023-04-01T11:10:24;3;;;2;;
15504;SDS011;7854;52.184;5.942;2023-04-01T11:14:53;4;;;4;;
15504;SDS011;7854;52.184;5.942;2023-04-01T11:19:23;3;;;3;;
15504;SDS011;7854;52.184;5.942;2023-04-01T11:23:47;5;;;4;;
15504;SDS011;7854;52.184;5.942;2023-04-01T11:26:00;3;;;3;;
15504;SDS011;7854;52.184;5.942;2023-04-01T11:28:35;3;;;3;;
15504;SDS011;7854;52.184;5.942;2023-04-01T11:30:29;3;;;3;;
15504;SDS011;7854;52.184;5.942;2023-04-01T11:32:43;4;;;4;;
15504;SDS011;7854;52.184;5.942;2023-04-01T11:34:58;4;;;3;;
15504;SDS011;7854;52.184;5.942;2023-04-01T11:37:14;4;;;4;;
15504;SDS011;7854;52.184;5.942;2023-04-01T11:39:27;4;;;4;;
15504;SDS011;7854;52.184;5.942;2023-04-01T11:41:41;4;;;4;;
15504;SDS011;7854;52.184;5.942;2023-04-01T11:43:57;6;;;6;;
15504;SDS011;7854;52.184;5.942;2023-04-01T11:46:09;5;;;5;;
15504;SDS011;7854;52.184;5.942;2023-04-01T11:48:25;5;;;4;;
15504;SDS011;7854;52.184;5.942;2023-04-01T11:50:39;4;;;4;;
15504;SDS011;7854;52.184;5.942;2023-04-01T11:52:54;4;;;4;;
15504;SDS011;7854;52.184;5.942;2023-04-01T11:55:06;4;;;4;;
15504;SDS011;7854;52.184;5.942;2023-04-01T11:57:26;5;;;5;;
15504;SDS011;7854;52.184;5.942;2023-04-01T11:59:40;6;;;5;;
15504;SDS011;7854;52.184;5.942;2023-04-01T12:01:51;5;;;3;;
15504;SDS011;7854;52.184;5.942;2023-04-01T12:04:13;2;;;2;;
15504;SDS011;7854;52.184;5.942;2023-04-01T12:06:19;4;;;3;;
15504;SDS011;7854;52.184;5.942;2023-04-01T12:08:35;3;;;2;;
15504;SDS011;7854;52.184;5.942;2023-04-01T12:10:47;1;;;1;;
15504;SDS011;7854;52.184;5.942;2023-04-01T12:13:02;2;;;2;;
15504;SDS011;7854;52.184;5.942;2023-04-01T12:15:18;2;;;1;;
15504;SDS011;7854;52.184;5.942;2023-04-01T12:17:32;1;;;1;;
15504;SDS011;7854;52.184;5.942;2023-04-01T12:19:46;1;;;1;;
15504;SDS011;7854;52.184;5.942;2023-04-01T12:22:03;2;;;2;;
15504;SDS011;7854;52.184;5.942;2023-04-01T12:24:20;2;;;2;;
15504;SDS011;7854;52.184;5.942;2023-04-01T12:26:31;3;;;3;;
15504;SDS011;7854;52.184;5.942;2023-04-01T12:28:45;2;;;2;;
15504;SDS011;7854;52.184;5.942;2023-04-01T12:30:58;2;;;2;;
15504;SDS011;7854;52.184;5.942;2023-04-01T12:33:16;2;;;2;;
15504;SDS011;7854;52.184;5.942;2023-04-01T12:35:25;3;;;3;;
15504;SDS011;7854;52.184;5.942;2023-04-01T12:37:40;2;;;2;;
15504;SDS011;7854;52.184;5.942;2023-04-01T12:39:58;2;;;2;;
15504;SDS011;7854;52.184;5.942;2023-04-01T12:42:11;2;;;2;;
15504;SDS011;7854;52.184;5.942;2023-04-01T12:44:25;2;;;2;;
15504;SDS011;7854;52.184;5.942;2023-04-01T12:46:41;3;;;2;;
15504;SDS011;7854;52.184;5.942;2023-04-01T12:49:00;3;;;3;;
15504;SDS011;7854;52.184;5.942;2023-04-01T12:51:24;3;;;3;;
15504;SDS011;7854;52.184;5.942;2023-04-01T12:53:24;3;;;3;;
15504;SDS011;7854;52.184;5.942;2023-04-01T12:55:35;3;;;3;;
15504;SDS011;7854;52.184;5.942;2023-04-01T12:57:54;3;;;3;;
15504;SDS011;7854;52.184;5.942;2023-04-01T13:00:11;3;;;3;;
15504;SDS011;7854;52.184;5.942;2023-04-01T13:02:21;3;;;3;;
15504;SDS011;7854;52.184;5.942;2023-04-01T13:04:45;4;;;3;;
15504;SDS011;7854;52.184;5.942;2023-04-01T13:06:49;4;;;4;;
15504;SDS011;7854;52.184;5.942;2023-04-01T13:09:04;3;;;3;;
15504;SDS011;7854;52.184;5.942;2023-04-01T13:13:38;4;;;4;;
15504;SDS011;7854;52.184;5.942;2023-04-01T13:15:45;4;;;4;;
15504;SDS011;7854;52.184;5.942;2023-04-01T13:18:03;4;;;4;;
15504;SDS011;7854;52.184;5.942;2023-04-01T13:20:15;3;;;3;;
15504;SDS011;7854;52.184;5.942;2023-04-01T13:22:30;3;;;3;;
15504;SDS011;7854;52.184;5.942;2023-04-01T13:24:44;4;;;3;;
15504;SDS011;7854;52.184;5.942;2023-04-01T13:26:59;4;;;4;;
15504;SDS011;7854;52.184;5.942;2023-04-01T13:29:13;3;;;3;;
15504;SDS011;7854;52.184;5.942;2023-04-01T13:31:30;3;;;3;;
15504;SDS011;7854;52.184;5.942;2023-04-01T13:33:42;3;;;3;;
15504;SDS011;7854;52.184;5.942;2023-04-01T13:35:58;2;;;2;;
15504;SDS011;7854;52.184;5.942;2023-04-01T13:38:15;3;;;3;;
15504;SDS011;7854;52.184;5.942;2023-04-01T13:40:26;4;;;3;;
15504;SDS011;7854;52.184;5.942;2023-04-01T13:42:40;3;;;3;;
15504;SDS011;7854;52.184;5.942;2023-04-01T13:44:54;3;;;3;;
15504;SDS011;7854;52.184;5.942;2023-04-01T13:47:12;3;;;3;;
15504;SDS011;7854;52.184;5.942;2023-04-01T13:49:32;4;;;3;;
15504;SDS011;7854;52.184;5.942;2023-04-01T13:53:55;8;;;4;;
15504;SDS011;7854;52.184;5.942;2023-04-01T13:56:08;3;;;3;;
15504;SDS011;7854;52.184;5.942;2023-04-01T13:58:22;4;;;4;;
15504;SDS011;7854;52.184;5.942;2023-04-01T14:00:39;4;;;4;;
15504;SDS011;7854;52.184;5.942;2023-04-01T14:02:56;4;;;4;;
15504;SDS011;7854;52.184;5.942;2023-04-01T14:05:09;4;;;4;;
15504;SDS011;7854;52.184;5.942;2023-04-01T14:07:19;4;;;4;;
15504;SDS011;7854;52.184;5.942;2023-04-01T14:09:36;4;;;4;;
15504;SDS011;7854;52.184;5.942;2023-04-01T14:11:49;3;;;3;;
15504;SDS011;7854;52.184;5.942;2023-04-01T14:14:02;5;;;4;;
15504;SDS011;7854;52.184;5.942;2023-04-01T14:16:21;5;;;4;;
15504;SDS011;7854;52.184;5.942;2023-04-01T14:18:32;4;;;4;;
15504;SDS011;7854;52.184;5.942;2023-04-01T14:20:45;5;;;4;;
15504;SDS011;7854;52.184;5.942;2023-04-01T14:23:02;9;;;5;;
15504;SDS011;7854;52.184;5.942;2023-04-01T14:25:18;7;;;7;;
15504;SDS011;7854;52.184;5.942;2023-04-01T14:27:29;6;;;5;;
15504;SDS011;7854;52.184;5.942;2023-04-01T14:29:42;5;;;5;;
15504;SDS011;7854;52.184;5.942;2023-04-01T14:31:58;6;;;6;;
15504;SDS011;7854;52.184;5.942;2023-04-01T14:34:15;6;;;6;;
15504;SDS011;7854;52.184;5.942;2023-04-01T14:38:39;6;;;6;;
15504;SDS011;7854;52.184;5.942;2023-04-01T14:40:54;7;;;6;;
15504;SDS011;7854;52.184;5.942;2023-04-01T14:43:10;12;;;12;;
15504;SDS011;7854;52.184;5.942;2023-04-01T14:45:40;9;;;8;;
15504;SDS011;7854;52.184;5.942;2023-04-01T14:47:41;8;;;8;;
15504;SDS011;7854;52.184;5.942;2023-04-01T14:49:50;8;;;8;;
15504;SDS011;7854;52.184;5.942;2023-04-01T14:52:05;8;;;7;;
15504;SDS011;7854;52.184;5.942;2023-04-01T14:54:19;7;;;7;;
15504;SDS011;7854;52.184;5.942;2023-04-01T14:56:41;6;;;5;;
15504;SDS011;7854;52.184;5.942;2023-04-01T14:58:49;8;;;8;;
15504;SDS011;7854;52.184;5.942;2023-04-01T15:01:07;13;;;12;;
15504;SDS011;7854;52.184;5.942;2023-04-01T15:03:18;8;;;8;;
15504;SDS011;7854;52.184;5.942;2023-04-01T15:05:32;9;;;9;;
15504;SDS011;7854;52.184;5.942;2023-04-01T15:07:50;6;;;6;;
15504;SDS011;7854;52.184;5.942;2023-04-01T15:10:01;6;;;5;;
15504;SDS011;7854;52.184;5.942;2023-04-01T15:12:17;6;;;6;;
15504;SDS011;7854;52.184;5.942;2023-04-01T15:14:31;6;;;6;;
15504;SDS011;7854;52.184;5.942;2023-04-01T15:16:46;6;;;5;;
15504;SDS011;7854;52.184;5.942;2023-04-01T15:19:00;6;;;6;;
15504;SDS011;7854;52.184;5.942;2023-04-01T15:21:15;6;;;5;;
15504;SDS011;7854;52.184;5.942;2023-04-01T15:23:29;8;;;7;;
15504;SDS011;7854;52.184;5.942;2023-04-01T15:25:45;8;;;7;;
15504;SDS011;7854;52.184;5.942;2023-04-01T15:27:55;6;;;6;;
15504;SDS011;7854;52.184;5.942;2023-04-01T15:32:25;7;;;6;;